Portada
METAR-TAF:

METAR-TAF

Aeroports :

Beirut, Líban

latitud: 33-49N, longitud: 035-29E, altitud: 29 m

Observació

L'informe es va fer fa 1 hora i 14 minuts, a les 18:00 UTC
Vent 1 kt amb direcció variable
Temperatura 17°C
Humitat 55%
Pressió 1016 hPa
Visibilitat 10 km o més
sense núvols per sota de 1500 mi sense presència de cumulonimbus.

METAR: OLBA 271800Z VRB01KT CAVOK 17/08 Q1016 NOSIG

Hora: 21:14 (19:14 UTC)

Pronòstic

L'informe es va fer fa 3 hores i 14 minuts, a les 16:00 UTC
Pronòstic vàlid del 27 a les 18 UTC al 28 a les 24 UTC
Vent 6 kt del Sud-Est
Visibilitat: 8000 m
Evolucionant progressivament
l' 28 a les 06 UTC al 28 a les 09 UTC
Vent 10 kt del Nord/Nord-Est

TAF: OLBA 271600Z 2718/2824 14006KT 8000 NSC BECMG 2806/2809 03010KT

Observacions i pronòstics meteorològics de més de 4000 aeroports (METAR i TAF).

Les estacions disponibles són els punts grocs i vermells al mapa.

Posi el ratolí al punt desitjat per veure el nom de l'estació.

Feu clic per veure les observacions i els pronòstics meteorològics.

Per canviar el mapa: feu clic els botons verds amb una creu de color negre per apropar; al botó verd amb un guió per allunyar la imatge; o en les fletxes verdes per a mapes adjacents.


METAR-TAF: